createdAt,value
2019-02-18T00:00:10.586Z,99.9
2019-02-18T00:05:05.556Z,99.9
2019-02-18T00:10:08.144Z,99.9
2019-02-18T00:15:03.086Z,99.9
2019-02-18T00:20:08.226Z,99.9
2019-02-18T00:25:20.940Z,99.9
2019-02-18T00:30:18.088Z,99.9
2019-02-18T00:35:05.450Z,99.9
2019-02-18T00:40:10.505Z,99.9
2019-02-18T00:45:05.522Z,99.9
2019-02-18T00:50:20.182Z,99.9
2019-02-18T00:55:05.977Z,99.9
2019-02-18T01:00:18.172Z,99.9
2019-02-18T01:05:05.479Z,99.9
2019-02-18T01:10:15.559Z,99.9
2019-02-18T01:15:05.499Z,99.9
2019-02-18T01:20:07.685Z,99.9
2019-02-18T01:25:05.171Z,99.9
2019-02-18T01:30:05.772Z,99.9
2019-02-18T01:35:23.562Z,99.9
2019-02-18T01:40:03.026Z,99.9
2019-02-18T01:45:03.030Z,99.9
2019-02-18T01:50:25.773Z,99.9
2019-02-18T01:55:05.347Z,99.9
2019-02-18T02:00:18.548Z,99.9
2019-02-18T02:05:10.945Z,99.9
2019-02-18T02:10:03.363Z,99.9
2019-02-18T02:15:08.483Z,99.9
2019-02-18T02:20:07.703Z,99.9
2019-02-18T02:25:15.226Z,99.9
2019-02-18T02:30:10.824Z,99.9
2019-02-18T02:35:16.060Z,99.9
2019-02-18T02:40:02.562Z,99.9
2019-02-18T02:45:37.971Z,99.9
2019-02-18T02:50:08.138Z,99.9
2019-02-18T02:55:18.272Z,99.9
2019-02-18T03:00:18.502Z,99.9
2019-02-18T03:05:10.849Z,99.8
2019-02-18T03:10:13.369Z,99.9
2019-02-18T03:15:05.809Z,99.9
2019-02-18T03:20:02.991Z,99.9
2019-02-18T03:30:03.192Z,99.9
2019-02-18T03:35:20.721Z,99.9
2019-02-18T03:40:36.118Z,99.9
2019-02-18T03:45:28.421Z,99.9
2019-02-18T03:50:08.479Z,99.9
2019-02-18T03:55:02.516Z,99.9
2019-02-18T04:00:10.129Z,99.9
2019-02-18T04:05:22.843Z,99.9
2019-02-18T04:10:11.013Z,99.9
2019-02-18T04:15:05.135Z,99.9
2019-02-18T04:20:08.351Z,99.9
2019-02-18T04:25:13.409Z,99.9
2019-02-18T04:30:05.947Z,99.9
2019-02-18T04:35:22.730Z,99.9
2019-02-18T04:40:05.758Z,99.9
2019-02-18T04:45:16.113Z,99.9
2019-02-18T04:50:05.750Z,99.9
2019-02-18T04:55:28.512Z,99.9
2019-02-18T05:00:05.065Z,99.9
2019-02-18T05:05:02.567Z,99.9
2019-02-18T05:10:05.675Z,99.9
2019-02-18T05:15:33.581Z,99.9
2019-02-18T05:20:35.589Z,99.9
2019-02-18T05:25:12.750Z,99.9
2019-02-18T05:30:05.524Z,99.9
2019-02-18T05:35:03.101Z,99.9
2019-02-18T05:40:05.149Z,99.9
2019-02-18T05:45:02.574Z,99.9
2019-02-18T05:50:27.874Z,99.9
2019-02-18T05:55:07.902Z,99.9
2019-02-18T06:00:02.947Z,99.9
2019-02-18T06:05:02.983Z,99.9
2019-02-18T06:10:03.481Z,99.9
2019-02-18T06:15:15.186Z,99.9
2019-02-18T06:20:38.862Z,99.9
2019-02-18T06:25:02.956Z,99.9
2019-02-18T06:30:05.222Z,99.9
2019-02-18T06:35:05.260Z,99.9
2019-02-18T06:40:02.741Z,99.9
2019-02-18T06:45:02.761Z,99.9
2019-02-18T06:50:15.408Z,99.9
2019-02-18T06:55:02.844Z,99.9
2019-02-18T07:00:07.976Z,99.9
2019-02-18T07:05:02.902Z,99.9
2019-02-18T07:10:05.993Z,99.9
2019-02-18T07:15:08.534Z,99.9
2019-02-18T07:20:17.881Z,99.9
2019-02-18T07:25:02.590Z,99.9
2019-02-18T07:30:17.856Z,99.9
2019-02-18T07:40:10.702Z,99.9
2019-02-18T07:45:03.119Z,99.9
2019-02-18T07:50:21.185Z,99.9
2019-02-18T07:55:03.097Z,99.9
2019-02-18T08:00:08.482Z,99.9
2019-02-18T08:05:02.870Z,99.9
2019-02-18T08:10:12.664Z,99.9
2019-02-18T08:15:03.358Z,99.9
2019-02-18T08:20:16.147Z,99.9
2019-02-18T08:25:22.756Z,99.9
2019-02-18T08:30:05.338Z,99.9
2019-02-18T08:35:05.425Z,99.9
2019-02-18T08:40:05.481Z,99.9
2019-02-18T08:45:15.454Z,99.9
2019-02-18T08:50:30.337Z,99.9
2019-02-18T08:55:03.409Z,99.9
2019-02-18T09:00:08.512Z,99.9
2019-02-18T09:05:08.489Z,99.9
2019-02-18T09:10:38.428Z,99.9
2019-02-18T09:15:03.424Z,99.9
2019-02-18T09:20:07.636Z,99.9
2019-02-18T09:25:25.324Z,99.9
2019-02-18T09:30:05.921Z,99.9
2019-02-18T09:35:22.756Z,99.9
2019-02-18T09:40:02.823Z,99.9
2019-02-18T09:45:18.009Z,99.8
2019-02-18T09:50:05.549Z,99.9
2019-02-18T09:55:03.009Z,99.9
2019-02-18T10:00:03.034Z,99.9
2019-02-18T10:05:05.608Z,99.9
2019-02-18T10:10:08.356Z,99.9
2019-02-18T10:15:21.130Z,99.9
2019-02-18T10:20:05.813Z,99.9
2019-02-18T10:25:03.383Z,99.9
2019-02-18T10:30:08.476Z,99.9
2019-02-18T10:40:13.539Z,99.9
2019-02-18T10:45:05.079Z,99.9
2019-02-18T10:50:15.786Z,99.9
2019-02-18T10:55:13.384Z,99.9
2019-02-18T11:00:03.111Z,99.9
2019-02-18T11:05:02.867Z,99.9
2019-02-18T11:10:05.904Z,99.9
2019-02-18T11:15:12.693Z,99.9
2019-02-18T11:20:02.840Z,99.9
2019-02-18T11:25:07.654Z,99.9
2019-02-18T11:30:08.049Z,99.9
2019-02-18T11:40:16.046Z,99.9
2019-02-18T11:45:02.481Z,99.9
2019-02-18T11:50:07.629Z,99.9
2019-02-18T11:55:22.855Z,99.9
2019-02-18T12:00:05.533Z,99.9
2019-02-18T12:05:03.117Z,99.9
2019-02-18T12:10:02.743Z,99.9
2019-02-18T12:15:07.922Z,99.9
2019-02-18T12:20:07.752Z,99.9
2019-02-18T12:25:02.769Z,99.9
2019-02-18T12:30:05.173Z,99.9
2019-02-18T12:35:07.922Z,98.6
2019-02-18T12:40:17.751Z,91.8
2019-02-18T12:45:12.855Z,83.2
2019-02-18T12:50:15.938Z,69.2
2019-02-18T12:55:29.063Z,62.3
2019-02-18T13:00:06.026Z,59.7
2019-02-18T13:05:05.654Z,55.9
2019-02-18T13:10:08.520Z,55.2
2019-02-18T13:15:07.663Z,53.6
2019-02-18T13:20:03.107Z,53.6
2019-02-18T13:25:08.428Z,46.3
2019-02-18T13:30:07.670Z,44.4
2019-02-18T13:35:33.142Z,42.3
2019-02-18T13:40:10.340Z,39.3
2019-02-18T13:45:20.362Z,40.9
2019-02-18T13:50:13.246Z,40.6
2019-02-18T13:55:26.031Z,39.5
2019-02-18T14:00:05.948Z,41
2019-02-18T14:05:05.334Z,42.8
2019-02-18T14:10:03.023Z,42.8
2019-02-18T14:15:03.232Z,42.5
2019-02-18T14:20:07.585Z,42.5
2019-02-18T14:25:05.539Z,42
2019-02-18T14:30:05.842Z,41.9
2019-02-18T14:35:07.624Z,41
2019-02-18T14:40:03.355Z,40.9
2019-02-18T14:45:03.090Z,41
2019-02-18T14:50:08.372Z,43.6
2019-02-18T14:55:03.315Z,43.6
2019-02-18T15:00:15.653Z,44.3
2019-02-18T15:05:08.326Z,45.5
2019-02-18T15:10:05.576Z,45.3
2019-02-18T15:15:10.824Z,43.3
2019-02-18T15:20:03.118Z,43.1
2019-02-18T15:25:08.345Z,44.8
2019-02-18T15:30:02.827Z,44.7
2019-02-18T15:35:10.659Z,46.7
2019-02-18T15:40:02.591Z,46.8
2019-02-18T15:45:05.932Z,49.7
2019-02-18T15:50:05.639Z,50.5
2019-02-18T15:55:30.667Z,50.3
2019-02-18T16:00:02.856Z,50.3
2019-02-18T16:05:05.339Z,51.6
2019-02-18T16:10:02.942Z,51.5
2019-02-18T16:15:03.213Z,53.5
2019-02-18T16:20:03.482Z,56.7
2019-02-18T16:25:08.087Z,68.3
2019-02-18T16:30:11.157Z,74
2019-02-18T16:35:08.892Z,85.1
2019-02-18T16:40:07.904Z,90.7
2019-02-18T16:45:03.092Z,90.7
2019-02-18T16:50:07.979Z,99.9
2019-02-18T16:55:08.044Z,99.9
2019-02-18T17:00:13.322Z,99.9
2019-02-18T17:05:10.441Z,99.9
2019-02-18T17:10:08.098Z,99.9
2019-02-18T17:20:05.787Z,99.9
2019-02-18T17:25:16.463Z,99.9
2019-02-18T17:35:05.544Z,99.9
2019-02-18T17:40:03.190Z,99.9
2019-02-18T17:45:05.767Z,99.9
2019-02-18T17:50:38.210Z,99.9
2019-02-18T17:55:22.740Z,99.9
2019-02-18T18:00:13.616Z,99.9
2019-02-18T18:05:07.650Z,99.9
2019-02-18T18:10:11.145Z,74.3
2019-02-18T18:15:21.110Z,99.9
2019-02-18T18:20:13.424Z,99.9
2019-02-18T18:25:03.735Z,99.9
2019-02-18T18:30:05.734Z,99.9
2019-02-18T18:35:07.617Z,99.9
2019-02-18T18:40:03.162Z,99.9
2019-02-18T18:45:30.628Z,99.9
2019-02-18T18:50:05.232Z,99.9
2019-02-18T18:55:03.218Z,99.9
2019-02-18T19:00:02.738Z,99.9
2019-02-18T19:05:02.909Z,99.9
2019-02-18T19:10:02.960Z,99.9
2019-02-18T19:15:02.524Z,99.9
2019-02-18T19:20:02.933Z,99.9
2019-02-18T19:25:10.733Z,99.9
2019-02-18T19:30:10.330Z,99.9
2019-02-18T19:35:17.705Z,99.9
2019-02-18T19:40:03.056Z,99.9
2019-02-18T19:45:17.883Z,99.9
2019-02-18T19:50:02.608Z,99.9
2019-02-18T19:55:10.765Z,99.9
2019-02-18T20:00:08.119Z,99.9
2019-02-18T20:05:05.421Z,99.9
2019-02-18T20:10:02.966Z,99.9
2019-02-18T20:15:08.114Z,99.9
2019-02-18T20:20:03.250Z,99.9
2019-02-18T20:25:16.286Z,99.9
2019-02-18T20:30:05.264Z,99.9
2019-02-18T20:35:05.317Z,99.9
2019-02-18T20:40:05.350Z,99.9
2019-02-18T20:45:02.979Z,99.9
2019-02-18T20:50:05.570Z,99.9
2019-02-18T20:55:03.286Z,99.9
2019-02-18T21:00:07.686Z,99.9
2019-02-18T21:05:03.243Z,99.9
2019-02-18T21:10:17.984Z,99.9
2019-02-18T21:15:03.149Z,99.9
2019-02-18T21:20:05.985Z,99.9
2019-02-18T21:25:18.254Z,99.9
2019-02-18T21:30:15.497Z,99.9
2019-02-18T21:35:07.962Z,99.9
2019-02-18T21:40:05.063Z,99.9
2019-02-18T21:45:16.106Z,99.9
2019-02-18T21:50:05.711Z,99.9
2019-02-18T21:55:07.593Z,99.9
2019-02-18T22:00:17.959Z,99.9
2019-02-18T22:05:05.749Z,99.9
2019-02-18T22:10:05.171Z,99.9
2019-02-18T22:15:08.487Z,99.9
2019-02-18T22:20:05.556Z,99.9
2019-02-18T22:25:15.455Z,99.5
2019-02-18T22:30:05.138Z,99.9
2019-02-18T22:35:15.388Z,99.9
2019-02-18T22:40:10.535Z,99.9
2019-02-18T22:45:05.201Z,99.9
2019-02-18T22:50:06.124Z,99.9
2019-02-18T22:55:03.363Z,99.9
2019-02-18T23:00:31.322Z,99.9
2019-02-18T23:05:03.694Z,99.9
2019-02-18T23:10:07.585Z,99.9
2019-02-18T23:15:08.204Z,99.9
2019-02-18T23:20:08.460Z,99.9
2019-02-18T23:25:20.820Z,99.9
2019-02-18T23:30:05.452Z,99.9
2019-02-18T23:35:05.745Z,99.9
2019-02-18T23:40:07.537Z,99.9
2019-02-18T23:45:02.510Z,99.9
2019-02-18T23:50:12.659Z,99.9
2019-02-18T23:55:07.525Z,99.9
